sensor_id;sensor_type;location;lat;lon;timestamp;P1;durP1;ratioP1;P2;durP2;ratioP2
43337;SDS011;28933;52.492;13.434;2023-12-22T00:01:57;9.35;;;3.55;;
43337;SDS011;28933;52.492;13.434;2023-12-22T00:04:43;6.80;;;2.63;;
43337;SDS011;28933;52.492;13.434;2023-12-22T00:07:28;7.25;;;2.47;;
43337;SDS011;28933;52.492;13.434;2023-12-22T00:10:14;7.63;;;2.10;;
43337;SDS011;28933;52.492;13.434;2023-12-22T00:13:00;5.90;;;2.40;;
43337;SDS011;28933;52.492;13.434;2023-12-22T00:15:46;12.05;;;2.72;;
43337;SDS011;28933;52.492;13.434;2023-12-22T00:18:32;8.20;;;2.85;;
43337;SDS011;28933;52.492;13.434;2023-12-22T00:21:18;10.88;;;2.72;;
43337;SDS011;28933;52.492;13.434;2023-12-22T00:24:04;7.68;;;2.58;;
43337;SDS011;28933;52.492;13.434;2023-12-22T00:26:50;11.82;;;2.45;;
43337;SDS011;28933;52.492;13.434;2023-12-22T00:29:36;7.20;;;3.17;;
43337;SDS011;28933;52.492;13.434;2023-12-22T00:32:22;14.73;;;4.18;;
43337;SDS011;28933;52.492;13.434;2023-12-22T00:35:08;13.52;;;4.35;;
43337;SDS011;28933;52.492;13.434;2023-12-22T00:37:54;11.45;;;2.83;;
43337;SDS011;28933;52.492;13.434;2023-12-22T00:40:40;14.02;;;2.50;;
43337;SDS011;28933;52.492;13.434;2023-12-22T00:43:26;15.48;;;4.85;;
43337;SDS011;28933;52.492;13.434;2023-12-22T00:46:13;6.65;;;2.38;;
43337;SDS011;28933;52.492;13.434;2023-12-22T00:48:59;8.88;;;2.67;;
43337;SDS011;28933;52.492;13.434;2023-12-22T00:51:45;8.30;;;3.65;;
43337;SDS011;28933;52.492;13.434;2023-12-22T00:54:30;11.07;;;3.33;;
43337;SDS011;28933;52.492;13.434;2023-12-22T00:57:17;10.70;;;2.95;;
43337;SDS011;28933;52.492;13.434;2023-12-22T01:00:03;11.13;;;2.83;;
43337;SDS011;28933;52.492;13.434;2023-12-22T01:02:51;8.68;;;3.22;;
43337;SDS011;28933;52.492;13.434;2023-12-22T01:05:37;13.40;;;3.80;;
43337;SDS011;28933;52.492;13.434;2023-12-22T01:08:23;11.93;;;3.08;;
43337;SDS011;28933;52.492;13.434;2023-12-22T01:11:08;7.97;;;2.75;;
43337;SDS011;28933;52.492;13.434;2023-12-22T01:13:54;9.32;;;2.92;;
43337;SDS011;28933;52.492;13.434;2023-12-22T01:16:40;5.07;;;2.30;;
43337;SDS011;28933;52.492;13.434;2023-12-22T01:19:26;6.53;;;2.70;;
43337;SDS011;28933;52.492;13.434;2023-12-22T01:22:12;9.05;;;2.97;;
43337;SDS011;28933;52.492;13.434;2023-12-22T01:24:58;5.90;;;2.45;;
43337;SDS011;28933;52.492;13.434;2023-12-22T01:27:45;8.63;;;3.10;;
43337;SDS011;28933;52.492;13.434;2023-12-22T01:30:32;6.88;;;2.58;;
43337;SDS011;28933;52.492;13.434;2023-12-22T01:33:18;13.45;;;4.03;;
43337;SDS011;28933;52.492;13.434;2023-12-22T01:36:04;8.55;;;2.58;;
43337;SDS011;28933;52.492;13.434;2023-12-22T01:38:50;6.18;;;2.75;;
43337;SDS011;28933;52.492;13.434;2023-12-22T01:41:36;11.82;;;2.78;;
43337;SDS011;28933;52.492;13.434;2023-12-22T01:44:22;10.13;;;2.47;;
43337;SDS011;28933;52.492;13.434;2023-12-22T01:47:08;6.18;;;2.25;;
43337;SDS011;28933;52.492;13.434;2023-12-22T01:49:54;12.20;;;2.92;;
43337;SDS011;28933;52.492;13.434;2023-12-22T01:52:40;5.68;;;2.72;;
43337;SDS011;28933;52.492;13.434;2023-12-22T01:55:28;9.27;;;2.95;;
43337;SDS011;28933;52.492;13.434;2023-12-22T01:58:14;7.45;;;2.50;;
43337;SDS011;28933;52.492;13.434;2023-12-22T02:01:01;8.13;;;3.25;;
43337;SDS011;28933;52.492;13.434;2023-12-22T02:03:51;8.30;;;2.58;;
43337;SDS011;28933;52.492;13.434;2023-12-22T02:06:38;12.90;;;3.30;;
43337;SDS011;28933;52.492;13.434;2023-12-22T02:09:24;10.15;;;2.90;;
43337;SDS011;28933;52.492;13.434;2023-12-22T02:12:10;9.75;;;3.08;;
43337;SDS011;28933;52.492;13.434;2023-12-22T02:14:56;8.48;;;3.13;;
43337;SDS011;28933;52.492;13.434;2023-12-22T02:20:31;10.73;;;2.38;;
43337;SDS011;28933;52.492;13.434;2023-12-22T02:23:18;9.25;;;2.45;;
43337;SDS011;28933;52.492;13.434;2023-12-22T02:26:17;8.25;;;2.83;;
43337;SDS011;28933;52.492;13.434;2023-12-22T02:29:12;10.38;;;2.80;;
43337;SDS011;28933;52.492;13.434;2023-12-22T02:32:02;7.07;;;2.45;;
43337;SDS011;28933;52.492;13.434;2023-12-22T02:34:56;5.53;;;2.22;;
43337;SDS011;28933;52.492;13.434;2023-12-22T02:37:43;6.30;;;2.55;;
43337;SDS011;28933;52.492;13.434;2023-12-22T02:40:31;8.75;;;3.55;;
43337;SDS011;28933;52.492;13.434;2023-12-22T02:43:19;7.22;;;2.30;;
43337;SDS011;28933;52.492;13.434;2023-12-22T02:46:12;9.45;;;2.70;;
43337;SDS011;28933;52.492;13.434;2023-12-22T02:48:59;5.00;;;2.13;;
43337;SDS011;28933;52.492;13.434;2023-12-22T02:51:45;5.53;;;2.17;;
43337;SDS011;28933;52.492;13.434;2023-12-22T02:54:31;8.07;;;2.45;;
43337;SDS011;28933;52.492;13.434;2023-12-22T02:57:18;5.72;;;2.42;;
43337;SDS011;28933;52.492;13.434;2023-12-22T03:00:04;5.18;;;2.22;;
43337;SDS011;28933;52.492;13.434;2023-12-22T03:02:51;9.60;;;2.63;;
43337;SDS011;28933;52.492;13.434;2023-12-22T03:05:36;9.48;;;2.33;;
43337;SDS011;28933;52.492;13.434;2023-12-22T03:08:22;12.63;;;2.10;;
43337;SDS011;28933;52.492;13.434;2023-12-22T03:11:08;13.27;;;3.30;;
43337;SDS011;28933;52.492;13.434;2023-12-22T03:13:54;3.95;;;2.28;;
43337;SDS011;28933;52.492;13.434;2023-12-22T03:16:40;4.22;;;1.75;;
43337;SDS011;28933;52.492;13.434;2023-12-22T03:19:26;3.22;;;1.80;;
43337;SDS011;28933;52.492;13.434;2023-12-22T03:22:12;3.17;;;1.40;;
43337;SDS011;28933;52.492;13.434;2023-12-22T03:24:58;5.30;;;1.80;;
43337;SDS011;28933;52.492;13.434;2023-12-22T03:27:44;5.43;;;1.95;;
43337;SDS011;28933;52.492;13.434;2023-12-22T03:30:30;6.05;;;1.67;;
43337;SDS011;28933;52.492;13.434;2023-12-22T03:33:16;5.15;;;1.90;;
43337;SDS011;28933;52.492;13.434;2023-12-22T03:36:02;8.02;;;1.92;;
43337;SDS011;28933;52.492;13.434;2023-12-22T03:38:48;7.15;;;3.05;;
43337;SDS011;28933;52.492;13.434;2023-12-22T03:41:34;5.22;;;1.55;;
43337;SDS011;28933;52.492;13.434;2023-12-22T03:44:20;7.60;;;2.13;;
43337;SDS011;28933;52.492;13.434;2023-12-22T03:47:06;5.50;;;1.90;;
43337;SDS011;28933;52.492;13.434;2023-12-22T03:49:52;8.15;;;2.38;;
43337;SDS011;28933;52.492;13.434;2023-12-22T03:52:38;8.52;;;2.65;;
43337;SDS011;28933;52.492;13.434;2023-12-22T03:55:24;6.25;;;2.13;;
43337;SDS011;28933;52.492;13.434;2023-12-22T03:58:10;3.63;;;2.22;;
43337;SDS011;28933;52.492;13.434;2023-12-22T04:00:56;4.72;;;2.25;;
43337;SDS011;28933;52.492;13.434;2023-12-22T04:03:42;5.20;;;2.08;;
43337;SDS011;28933;52.492;13.434;2023-12-22T04:06:28;6.32;;;1.65;;
43337;SDS011;28933;52.492;13.434;2023-12-22T04:09:14;5.45;;;1.38;;
43337;SDS011;28933;52.492;13.434;2023-12-22T04:12:00;1.75;;;1.10;;
43337;SDS011;28933;52.492;13.434;2023-12-22T04:14:46;1.60;;;0.80;;
43337;SDS011;28933;52.492;13.434;2023-12-22T04:17:32;3.75;;;1.60;;
43337;SDS011;28933;52.492;13.434;2023-12-22T04:20:18;3.42;;;0.88;;
43337;SDS011;28933;52.492;13.434;2023-12-22T04:23:04;2.35;;;1.30;;
43337;SDS011;28933;52.492;13.434;2023-12-22T04:25:50;3.05;;;0.88;;
43337;SDS011;28933;52.492;13.434;2023-12-22T04:28:36;2.80;;;1.10;;
43337;SDS011;28933;52.492;13.434;2023-12-22T04:31:22;1.70;;;0.85;;
43337;SDS011;28933;52.492;13.434;2023-12-22T04:34:08;5.25;;;1.02;;
43337;SDS011;28933;52.492;13.434;2023-12-22T04:36:54;2.60;;;1.33;;
43337;SDS011;28933;52.492;13.434;2023-12-22T04:39:40;3.10;;;1.30;;
43337;SDS011;28933;52.492;13.434;2023-12-22T04:42:26;3.80;;;1.55;;
43337;SDS011;28933;52.492;13.434;2023-12-22T04:45:12;4.82;;;2.55;;
43337;SDS011;28933;52.492;13.434;2023-12-22T04:47:58;3.17;;;1.40;;
43337;SDS011;28933;52.492;13.434;2023-12-22T04:50:44;3.47;;;1.27;;
43337;SDS011;28933;52.492;13.434;2023-12-22T04:53:30;5.50;;;2.13;;
43337;SDS011;28933;52.492;13.434;2023-12-22T04:56:16;4.40;;;1.80;;
43337;SDS011;28933;52.492;13.434;2023-12-22T04:59:02;1.55;;;1.00;;
43337;SDS011;28933;52.492;13.434;2023-12-22T05:01:48;2.63;;;0.95;;
43337;SDS011;28933;52.492;13.434;2023-12-22T05:04:34;2.40;;;1.17;;
43337;SDS011;28933;52.492;13.434;2023-12-22T05:07:20;3.85;;;1.17;;
43337;SDS011;28933;52.492;13.434;2023-12-22T05:10:06;3.55;;;1.08;;
43337;SDS011;28933;52.492;13.434;2023-12-22T05:12:52;1.67;;;1.00;;
43337;SDS011;28933;52.492;13.434;2023-12-22T05:15:39;1.25;;;0.70;;
43337;SDS011;28933;52.492;13.434;2023-12-22T05:18:25;1.38;;;0.80;;
43337;SDS011;28933;52.492;13.434;2023-12-22T05:21:14;2.22;;;1.10;;
43337;SDS011;28933;52.492;13.434;2023-12-22T05:24:00;3.78;;;1.13;;
43337;SDS011;28933;52.492;13.434;2023-12-22T05:26:46;1.88;;;1.20;;
43337;SDS011;28933;52.492;13.434;2023-12-22T05:29:32;1.67;;;0.90;;
43337;SDS011;28933;52.492;13.434;2023-12-22T05:32:18;2.17;;;1.00;;
43337;SDS011;28933;52.492;13.434;2023-12-22T05:35:04;3.63;;;1.23;;
43337;SDS011;28933;52.492;13.434;2023-12-22T05:37:50;4.80;;;1.20;;
43337;SDS011;28933;52.492;13.434;2023-12-22T05:40:36;3.70;;;1.17;;
43337;SDS011;28933;52.492;13.434;2023-12-22T05:43:22;3.92;;;1.70;;
43337;SDS011;28933;52.492;13.434;2023-12-22T05:46:08;2.42;;;1.25;;
43337;SDS011;28933;52.492;13.434;2023-12-22T05:48:55;3.20;;;1.30;;
43337;SDS011;28933;52.492;13.434;2023-12-22T05:51:44;1.75;;;1.00;;
43337;SDS011;28933;52.492;13.434;2023-12-22T05:54:30;2.38;;;1.02;;
43337;SDS011;28933;52.492;13.434;2023-12-22T05:57:16;2.22;;;1.20;;
43337;SDS011;28933;52.492;13.434;2023-12-22T06:00:03;2.58;;;1.13;;
43337;SDS011;28933;52.492;13.434;2023-12-22T06:02:52;6.00;;;1.73;;
43337;SDS011;28933;52.492;13.434;2023-12-22T06:05:38;4.13;;;1.70;;
43337;SDS011;28933;52.492;13.434;2023-12-22T06:08:24;4.13;;;1.95;;
43337;SDS011;28933;52.492;13.434;2023-12-22T06:11:10;4.05;;;1.70;;
43337;SDS011;28933;52.492;13.434;2023-12-22T06:13:56;7.18;;;1.35;;
43337;SDS011;28933;52.492;13.434;2023-12-22T06:16:42;2.88;;;1.67;;
43337;SDS011;28933;52.492;13.434;2023-12-22T06:19:28;7.93;;;1.45;;
43337;SDS011;28933;52.492;13.434;2023-12-22T06:22:15;4.63;;;1.42;;
43337;SDS011;28933;52.492;13.434;2023-12-22T06:25:01;3.75;;;1.15;;
43337;SDS011;28933;52.492;13.434;2023-12-22T06:27:52;4.28;;;1.52;;
43337;SDS011;28933;52.492;13.434;2023-12-22T06:30:38;3.72;;;0.95;;
43337;SDS011;28933;52.492;13.434;2023-12-22T06:33:24;4.45;;;1.33;;
43337;SDS011;28933;52.492;13.434;2023-12-22T06:39:05;2.90;;;1.23;;
43337;SDS011;28933;52.492;13.434;2023-12-22T06:41:51;4.70;;;1.90;;
43337;SDS011;28933;52.492;13.434;2023-12-22T06:44:37;2.58;;;1.10;;
43337;SDS011;28933;52.492;13.434;2023-12-22T06:47:23;1.00;;;0.85;;
43337;SDS011;28933;52.492;13.434;2023-12-22T06:50:09;2.05;;;1.45;;
43337;SDS011;28933;52.492;13.434;2023-12-22T06:52:55;4.75;;;1.20;;
43337;SDS011;28933;52.492;13.434;2023-12-22T06:55:41;4.32;;;1.63;;
43337;SDS011;28933;52.492;13.434;2023-12-22T06:58:27;4.10;;;1.13;;
43337;SDS011;28933;52.492;13.434;2023-12-22T07:01:17;3.75;;;1.20;;
43337;SDS011;28933;52.492;13.434;2023-12-22T07:04:06;3.95;;;1.20;;
43337;SDS011;28933;52.492;13.434;2023-12-22T07:06:52;1.67;;;1.30;;
43337;SDS011;28933;52.492;13.434;2023-12-22T07:09:38;2.85;;;1.13;;
43337;SDS011;28933;52.492;13.434;2023-12-22T07:12:25;4.47;;;1.50;;
43337;SDS011;28933;52.492;13.434;2023-12-22T07:15:10;4.13;;;1.35;;
43337;SDS011;28933;52.492;13.434;2023-12-22T07:17:56;6.20;;;1.58;;
43337;SDS011;28933;52.492;13.434;2023-12-22T07:20:42;4.18;;;1.35;;
43337;SDS011;28933;52.492;13.434;2023-12-22T07:23:28;3.72;;;1.15;;
43337;SDS011;28933;52.492;13.434;2023-12-22T07:26:14;5.88;;;1.73;;
43337;SDS011;28933;52.492;13.434;2023-12-22T07:29:00;3.60;;;1.42;;
43337;SDS011;28933;52.492;13.434;2023-12-22T07:31:46;7.00;;;1.75;;
43337;SDS011;28933;52.492;13.434;2023-12-22T07:34:32;5.22;;;1.65;;
43337;SDS011;28933;52.492;13.434;2023-12-22T07:37:18;4.40;;;1.60;;
43337;SDS011;28933;52.492;13.434;2023-12-22T07:40:04;3.08;;;1.08;;
43337;SDS011;28933;52.492;13.434;2023-12-22T07:42:50;6.25;;;1.48;;
43337;SDS011;28933;52.492;13.434;2023-12-22T07:45:36;5.45;;;1.80;;
43337;SDS011;28933;52.492;13.434;2023-12-22T07:48:23;1.80;;;1.40;;
43337;SDS011;28933;52.492;13.434;2023-12-22T07:51:12;7.50;;;1.83;;
43337;SDS011;28933;52.492;13.434;2023-12-22T07:53:58;6.03;;;1.77;;
43337;SDS011;28933;52.492;13.434;2023-12-22T07:56:44;4.10;;;1.50;;
43337;SDS011;28933;52.492;13.434;2023-12-22T07:59:30;9.75;;;2.40;;
43337;SDS011;28933;52.492;13.434;2023-12-22T08:02:15;3.80;;;1.45;;
43337;SDS011;28933;52.492;13.434;2023-12-22T08:05:01;3.05;;;2.00;;
43337;SDS011;28933;52.492;13.434;2023-12-22T08:07:48;6.22;;;1.80;;
43337;SDS011;28933;52.492;13.434;2023-12-22T08:10:34;6.47;;;2.08;;
43337;SDS011;28933;52.492;13.434;2023-12-22T08:13:20;3.03;;;1.55;;
43337;SDS011;28933;52.492;13.434;2023-12-22T08:16:06;2.80;;;1.30;;
43337;SDS011;28933;52.492;13.434;2023-12-22T08:18:52;4.38;;;1.30;;
43337;SDS011;28933;52.492;13.434;2023-12-22T08:21:38;3.33;;;1.45;;
43337;SDS011;28933;52.492;13.434;2023-12-22T08:24:24;4.93;;;1.40;;
43337;SDS011;28933;52.492;13.434;2023-12-22T08:27:10;2.97;;;1.23;;
43337;SDS011;28933;52.492;13.434;2023-12-22T08:29:56;2.95;;;1.40;;
43337;SDS011;28933;52.492;13.434;2023-12-22T08:32:42;1.60;;;1.00;;
43337;SDS011;28933;52.492;13.434;2023-12-22T08:35:28;3.45;;;1.25;;
43337;SDS011;28933;52.492;13.434;2023-12-22T08:38:14;4.70;;;1.33;;
43337;SDS011;28933;52.492;13.434;2023-12-22T08:41:00;6.50;;;1.73;;
43337;SDS011;28933;52.492;13.434;2023-12-22T08:43:46;6.15;;;1.70;;
43337;SDS011;28933;52.492;13.434;2023-12-22T08:46:32;3.92;;;1.63;;
43337;SDS011;28933;52.492;13.434;2023-12-22T08:49:19;10.30;;;1.98;;
43337;SDS011;28933;52.492;13.434;2023-12-22T08:52:06;3.90;;;1.77;;
43337;SDS011;28933;52.492;13.434;2023-12-22T08:54:52;3.58;;;1.67;;
43337;SDS011;28933;52.492;13.434;2023-12-22T08:57:39;11.32;;;1.90;;
43337;SDS011;28933;52.492;13.434;2023-12-22T09:00:25;9.88;;;2.30;;
43337;SDS011;28933;52.492;13.434;2023-12-22T09:03:11;10.55;;;2.17;;
43337;SDS011;28933;52.492;13.434;2023-12-22T09:05:57;9.85;;;2.42;;
43337;SDS011;28933;52.492;13.434;2023-12-22T09:08:43;5.53;;;2.17;;
43337;SDS011;28933;52.492;13.434;2023-12-22T09:11:29;5.07;;;2.30;;
43337;SDS011;28933;52.492;13.434;2023-12-22T09:14:15;3.63;;;1.63;;
43337;SDS011;28933;52.492;13.434;2023-12-22T09:17:01;9.32;;;2.40;;
43337;SDS011;28933;52.492;13.434;2023-12-22T09:19:47;6.47;;;2.17;;
43337;SDS011;28933;52.492;13.434;2023-12-22T09:22:33;5.90;;;1.85;;
43337;SDS011;28933;52.492;13.434;2023-12-22T09:25:19;8.35;;;2.50;;
43337;SDS011;28933;52.492;13.434;2023-12-22T09:28:05;5.30;;;2.63;;
43337;SDS011;28933;52.492;13.434;2023-12-22T09:30:51;7.90;;;2.22;;
43337;SDS011;28933;52.492;13.434;2023-12-22T09:33:38;7.07;;;2.15;;
43337;SDS011;28933;52.492;13.434;2023-12-22T09:36:25;7.22;;;2.20;;
43337;SDS011;28933;52.492;13.434;2023-12-22T09:39:11;6.05;;;1.98;;
43337;SDS011;28933;52.492;13.434;2023-12-22T09:42:02;7.82;;;2.05;;
43337;SDS011;28933;52.492;13.434;2023-12-22T09:44:48;11.90;;;2.17;;
43337;SDS011;28933;52.492;13.434;2023-12-22T09:47:38;7.43;;;2.78;;
43337;SDS011;28933;52.492;13.434;2023-12-22T09:50:26;6.47;;;2.40;;
43337;SDS011;28933;52.492;13.434;2023-12-22T09:53:13;6.93;;;2.65;;
43337;SDS011;28933;52.492;13.434;2023-12-22T09:55:59;8.45;;;3.17;;
43337;SDS011;28933;52.492;13.434;2023-12-22T09:58:46;5.88;;;2.25;;
43337;SDS011;28933;52.492;13.434;2023-12-22T10:01:33;5.03;;;2.08;;
43337;SDS011;28933;52.492;13.434;2023-12-22T10:04:21;8.55;;;2.22;;
43337;SDS011;28933;52.492;13.434;2023-12-22T10:07:07;10.43;;;2.63;;
43337;SDS011;28933;52.492;13.434;2023-12-22T10:09:54;8.73;;;2.53;;
43337;SDS011;28933;52.492;13.434;2023-12-22T10:12:42;8.60;;;2.75;;
43337;SDS011;28933;52.492;13.434;2023-12-22T10:15:30;8.80;;;2.03;;
43337;SDS011;28933;52.492;13.434;2023-12-22T10:18:16;4.03;;;1.98;;
43337;SDS011;28933;52.492;13.434;2023-12-22T10:21:03;8.35;;;3.47;;
43337;SDS011;28933;52.492;13.434;2023-12-22T10:23:49;9.07;;;3.05;;
43337;SDS011;28933;52.492;13.434;2023-12-22T10:26:34;7.53;;;2.60;;
43337;SDS011;28933;52.492;13.434;2023-12-22T10:29:20;7.82;;;2.60;;
43337;SDS011;28933;52.492;13.434;2023-12-22T10:32:06;10.82;;;3.35;;
43337;SDS011;28933;52.492;13.434;2023-12-22T10:34:54;6.60;;;2.42;;
43337;SDS011;28933;52.492;13.434;2023-12-22T10:37:42;10.82;;;2.53;;
43337;SDS011;28933;52.492;13.434;2023-12-22T10:40:28;11.63;;;3.30;;
43337;SDS011;28933;52.492;13.434;2023-12-22T10:43:15;15.13;;;3.30;;
43337;SDS011;28933;52.492;13.434;2023-12-22T10:46:01;9.38;;;3.30;;
43337;SDS011;28933;52.492;13.434;2023-12-22T10:48:47;6.55;;;2.20;;
43337;SDS011;28933;52.492;13.434;2023-12-22T10:51:33;8.95;;;3.58;;
43337;SDS011;28933;52.492;13.434;2023-12-22T10:54:19;10.93;;;3.10;;
43337;SDS011;28933;52.492;13.434;2023-12-22T10:57:05;13.20;;;2.70;;
43337;SDS011;28933;52.492;13.434;2023-12-22T10:59:51;9.35;;;3.58;;
43337;SDS011;28933;52.492;13.434;2023-12-22T11:02:38;7.50;;;1.98;;
43337;SDS011;28933;52.492;13.434;2023-12-22T11:05:28;7.57;;;2.33;;
43337;SDS011;28933;52.492;13.434;2023-12-22T11:08:15;5.45;;;2.08;;
43337;SDS011;28933;52.492;13.434;2023-12-22T11:11:03;6.95;;;1.88;;
43337;SDS011;28933;52.492;13.434;2023-12-22T11:14:06;10.30;;;3.33;;
43337;SDS011;28933;52.492;13.434;2023-12-22T11:16:53;5.88;;;2.78;;
43337;SDS011;28933;52.492;13.434;2023-12-22T11:19:40;7.97;;;2.58;;
43337;SDS011;28933;52.492;13.434;2023-12-22T11:22:27;6.18;;;2.55;;
43337;SDS011;28933;52.492;13.434;2023-12-22T11:25:16;10.15;;;2.15;;
43337;SDS011;28933;52.492;13.434;2023-12-22T11:28:03;7.80;;;2.85;;
43337;SDS011;28933;52.492;13.434;2023-12-22T11:30:52;11.15;;;2.60;;
43337;SDS011;28933;52.492;13.434;2023-12-22T11:33:47;8.55;;;3.40;;
43337;SDS011;28933;52.492;13.434;2023-12-22T11:36:33;8.10;;;2.60;;
43337;SDS011;28933;52.492;13.434;2023-12-22T11:39:21;7.05;;;3.08;;
43337;SDS011;28933;52.492;13.434;2023-12-22T11:42:08;6.88;;;2.67;;
43337;SDS011;28933;52.492;13.434;2023-12-22T11:45:10;6.40;;;2.13;;
43337;SDS011;28933;52.492;13.434;2023-12-22T11:48:04;7.30;;;2.45;;
43337;SDS011;28933;52.492;13.434;2023-12-22T11:50:51;6.93;;;2.75;;
43337;SDS011;28933;52.492;13.434;2023-12-22T11:53:37;8.20;;;2.00;;
43337;SDS011;28933;52.492;13.434;2023-12-22T11:56:24;6.60;;;2.45;;
43337;SDS011;28933;52.492;13.434;2023-12-22T11:59:10;9.15;;;2.42;;
43337;SDS011;28933;52.492;13.434;2023-12-22T12:01:56;6.43;;;2.30;;
43337;SDS011;28933;52.492;13.434;2023-12-22T12:04:42;8.90;;;2.33;;
43337;SDS011;28933;52.492;13.434;2023-12-22T12:07:41;8.10;;;2.08;;
43337;SDS011;28933;52.492;13.434;2023-12-22T15:53:31;8.05;;;2.90;;
43337;SDS011;28933;52.492;13.434;2023-12-22T15:56:17;7.30;;;2.15;;
43337;SDS011;28933;52.492;13.434;2023-12-22T15:59:03;5.97;;;2.70;;
43337;SDS011;28933;52.492;13.434;2023-12-22T16:01:49;7.03;;;2.13;;
43337;SDS011;28933;52.492;13.434;2023-12-22T16:04:35;11.77;;;2.88;;
43337;SDS011;28933;52.492;13.434;2023-12-22T16:07:21;7.20;;;2.67;;
43337;SDS011;28933;52.492;13.434;2023-12-22T16:10:09;7.28;;;2.75;;
43337;SDS011;28933;52.492;13.434;2023-12-22T16:12:55;11.75;;;3.30;;
43337;SDS011;28933;52.492;13.434;2023-12-22T16:15:41;11.20;;;3.83;;
43337;SDS011;28933;52.492;13.434;2023-12-22T16:18:27;9.02;;;2.55;;
43337;SDS011;28933;52.492;13.434;2023-12-22T16:21:14;7.15;;;2.95;;
43337;SDS011;28933;52.492;13.434;2023-12-22T16:24:00;5.88;;;2.38;;
43337;SDS011;28933;52.492;13.434;2023-12-22T16:26:46;6.68;;;2.50;;
43337;SDS011;28933;52.492;13.434;2023-12-22T16:29:32;8.18;;;2.63;;
43337;SDS011;28933;52.492;13.434;2023-12-22T16:32:19;8.98;;;3.13;;
43337;SDS011;28933;52.492;13.434;2023-12-22T16:35:06;8.77;;;2.38;;
43337;SDS011;28933;52.492;13.434;2023-12-22T16:37:52;4.47;;;2.28;;
43337;SDS011;28933;52.492;13.434;2023-12-22T16:40:38;3.88;;;2.00;;
43337;SDS011;28933;52.492;13.434;2023-12-22T16:43:24;4.45;;;2.30;;
43337;SDS011;28933;52.492;13.434;2023-12-22T16:46:10;8.88;;;2.80;;
43337;SDS011;28933;52.492;13.434;2023-12-22T16:48:56;9.20;;;2.03;;
43337;SDS011;28933;52.492;13.434;2023-12-22T16:51:42;4.95;;;1.88;;
43337;SDS011;28933;52.492;13.434;2023-12-22T16:54:28;5.60;;;2.00;;
43337;SDS011;28933;52.492;13.434;2023-12-22T16:57:14;5.13;;;1.85;;
43337;SDS011;28933;52.492;13.434;2023-12-22T17:00:00;4.38;;;2.15;;
43337;SDS011;28933;52.492;13.434;2023-12-22T17:02:46;7.85;;;2.85;;
43337;SDS011;28933;52.492;13.434;2023-12-22T17:05:32;4.75;;;1.92;;
43337;SDS011;28933;52.492;13.434;2023-12-22T17:08:18;5.72;;;1.95;;
43337;SDS011;28933;52.492;13.434;2023-12-22T17:11:04;7.22;;;2.10;;
43337;SDS011;28933;52.492;13.434;2023-12-22T17:13:50;5.25;;;1.77;;
43337;SDS011;28933;52.492;13.434;2023-12-22T17:16:39;7.40;;;2.88;;
43337;SDS011;28933;52.492;13.434;2023-12-22T17:19:25;8.57;;;2.50;;
43337;SDS011;28933;52.492;13.434;2023-12-22T17:22:11;5.00;;;1.90;;
43337;SDS011;28933;52.492;13.434;2023-12-22T17:24:57;5.85;;;2.28;;
43337;SDS011;28933;52.492;13.434;2023-12-22T17:27:43;5.78;;;2.05;;
43337;SDS011;28933;52.492;13.434;2023-12-22T17:30:30;5.68;;;2.25;;
43337;SDS011;28933;52.492;13.434;2023-12-22T17:33:17;6.97;;;2.55;;
43337;SDS011;28933;52.492;13.434;2023-12-22T17:36:03;11.43;;;1.90;;
43337;SDS011;28933;52.492;13.434;2023-12-22T17:38:49;4.55;;;2.00;;
43337;SDS011;28933;52.492;13.434;2023-12-22T17:41:35;8.23;;;2.33;;
43337;SDS011;28933;52.492;13.434;2023-12-22T17:44:21;4.93;;;2.22;;
43337;SDS011;28933;52.492;13.434;2023-12-22T17:47:07;6.20;;;2.10;;
43337;SDS011;28933;52.492;13.434;2023-12-22T17:49:53;7.43;;;2.05;;
43337;SDS011;28933;52.492;13.434;2023-12-22T17:52:39;5.32;;;2.22;;
43337;SDS011;28933;52.492;13.434;2023-12-22T17:55:25;5.28;;;2.75;;
43337;SDS011;28933;52.492;13.434;2023-12-22T17:58:11;6.40;;;2.20;;
43337;SDS011;28933;52.492;13.434;2023-12-22T18:00:57;9.80;;;2.58;;
43337;SDS011;28933;52.492;13.434;2023-12-22T18:03:43;4.07;;;2.33;;
43337;SDS011;28933;52.492;13.434;2023-12-22T18:06:29;7.20;;;2.47;;
43337;SDS011;28933;52.492;13.434;2023-12-22T18:09:14;7.57;;;2.42;;
43337;SDS011;28933;52.492;13.434;2023-12-22T18:12:00;6.03;;;2.20;;
43337;SDS011;28933;52.492;13.434;2023-12-22T18:14:46;6.38;;;2.20;;
43337;SDS011;28933;52.492;13.434;2023-12-22T18:17:33;6.53;;;1.92;;
43337;SDS011;28933;52.492;13.434;2023-12-22T18:20:19;6.65;;;2.38;;
43337;SDS011;28933;52.492;13.434;2023-12-22T18:23:07;9.88;;;2.85;;
43337;SDS011;28933;52.492;13.434;2023-12-22T18:25:53;4.85;;;2.00;;
43337;SDS011;28933;52.492;13.434;2023-12-22T18:28:38;8.82;;;2.92;;
43337;SDS011;28933;52.492;13.434;2023-12-22T18:31:24;5.63;;;2.10;;
43337;SDS011;28933;52.492;13.434;2023-12-22T18:34:10;5.70;;;2.25;;
43337;SDS011;28933;52.492;13.434;2023-12-22T18:36:56;7.40;;;2.50;;
43337;SDS011;28933;52.492;13.434;2023-12-22T18:39:42;7.72;;;2.92;;
43337;SDS011;28933;52.492;13.434;2023-12-22T18:42:28;4.90;;;1.90;;
43337;SDS011;28933;52.492;13.434;2023-12-22T18:45:14;12.02;;;3.22;;
43337;SDS011;28933;52.492;13.434;2023-12-22T18:48:03;6.90;;;2.45;;
43337;SDS011;28933;52.492;13.434;2023-12-22T18:50:49;6.25;;;1.85;;
43337;SDS011;28933;52.492;13.434;2023-12-22T18:53:35;5.65;;;2.47;;
43337;SDS011;28933;52.492;13.434;2023-12-22T18:56:21;8.98;;;2.58;;
43337;SDS011;28933;52.492;13.434;2023-12-22T18:59:10;8.50;;;2.63;;
43337;SDS011;28933;52.492;13.434;2023-12-22T19:01:56;7.55;;;2.25;;
43337;SDS011;28933;52.492;13.434;2023-12-22T19:04:42;6.13;;;1.58;;
43337;SDS011;28933;52.492;13.434;2023-12-22T19:07:28;8.57;;;2.55;;
43337;SDS011;28933;52.492;13.434;2023-12-22T19:10:14;6.30;;;2.75;;
43337;SDS011;28933;52.492;13.434;2023-12-22T19:13:00;6.30;;;2.55;;
43337;SDS011;28933;52.492;13.434;2023-12-22T19:15:46;6.68;;;2.33;;
43337;SDS011;28933;52.492;13.434;2023-12-22T19:18:33;8.80;;;2.80;;
43337;SDS011;28933;52.492;13.434;2023-12-22T19:21:20;7.63;;;2.88;;
43337;SDS011;28933;52.492;13.434;2023-12-22T19:24:06;9.98;;;2.88;;
43337;SDS011;28933;52.492;13.434;2023-12-22T19:26:52;13.27;;;2.22;;
43337;SDS011;28933;52.492;13.434;2023-12-22T19:29:38;5.40;;;2.20;;
43337;SDS011;28933;52.492;13.434;2023-12-22T19:32:24;8.20;;;2.38;;
43337;SDS011;28933;52.492;13.434;2023-12-22T19:35:10;4.53;;;2.10;;
43337;SDS011;28933;52.492;13.434;2023-12-22T19:37:56;12.80;;;4.07;;
43337;SDS011;28933;52.492;13.434;2023-12-22T19:40:42;7.40;;;2.83;;
43337;SDS011;28933;52.492;13.434;2023-12-22T19:43:30;6.85;;;2.10;;
43337;SDS011;28933;52.492;13.434;2023-12-22T19:46:16;12.07;;;3.00;;
43337;SDS011;28933;52.492;13.434;2023-12-22T19:49:02;7.20;;;2.78;;
43337;SDS011;28933;52.492;13.434;2023-12-22T19:51:48;5.32;;;2.22;;
43337;SDS011;28933;52.492;13.434;2023-12-22T19:54:34;11.20;;;3.05;;
43337;SDS011;28933;52.492;13.434;2023-12-22T19:57:20;8.57;;;2.63;;
43337;SDS011;28933;52.492;13.434;2023-12-22T20:00:07;12.27;;;2.88;;
43337;SDS011;28933;52.492;13.434;2023-12-22T20:02:53;5.32;;;2.42;;
43337;SDS011;28933;52.492;13.434;2023-12-22T20:05:40;8.15;;;3.50;;
43337;SDS011;28933;52.492;13.434;2023-12-22T20:08:28;7.47;;;2.45;;
43337;SDS011;28933;52.492;13.434;2023-12-22T20:11:14;9.02;;;2.15;;
43337;SDS011;28933;52.492;13.434;2023-12-22T20:14:02;5.95;;;2.38;;
43337;SDS011;28933;52.492;13.434;2023-12-22T20:16:48;7.93;;;3.25;;